Time;durP1;ratioP1;P1;durP2;ratioP2;P2;SDS_P1;SDS_P2;PMS_P1;PMS_P2;Temp;Humidity;BMP_temperature;BMP_pressure;BME280_temperature;BME280_humidity;BME280_pressure;Samples;Min_cycle;Max_cycle;Signal;HPM_P1;HPM_P2
2022/09/05 00:01:37;;;;;;;4.57;4.00;;;;;;;20.73;77.85;101019.72;4974645;28;20090;-65
2022/09/05 00:04:25;;;;;;;5.40;4.10;;;;;;;20.73;77.88;101027.91;4979457;28;20026;-65
2022/09/05 00:07:09;;;;;;;5.47;4.13;;;;;;;20.70;78.29;101014.63;4974629;28;20737;-66
2022/09/05 00:09:54;;;;;;;6.70;3.67;;;;;;;20.72;78.63;101020.72;4976496;28;20680;-65
2022/09/05 00:12:19;;;;;;;;;;;;;;;20.70;78.99;101017.34;4974267;28;20491;-67
2022/09/05 00:15:22;;;;;;;9.23;4.05;;;;;;;20.67;79.48;101023.16;4981840;28;19921;-66
2022/09/05 00:18:21;;;;;;;4.57;4.03;;;;;;;20.59;79.82;101015.03;4955608;28;20266;-65
2022/09/05 00:21:05;;;;;;;4.82;4.18;;;;;;;20.65;80.30;101022.50;4986458;28;20083;-66
2022/09/05 00:23:54;;;;;;;6.05;4.43;;;;;;;20.63;80.36;101025.41;4975593;28;20030;-65
2022/09/05 00:26:55;;;;;;;4.82;4.28;;;;;;;20.58;80.52;101010.63;4982249;28;20042;-66
2022/09/05 00:29:59;;;;;;;5.07;4.38;;;;;;;20.59;80.87;101034.13;4971063;28;20054;-66
2022/09/05 00:32:45;;;;;;;5.30;3.92;;;;;;;20.59;80.84;101025.94;4989924;28;20032;-66
2022/09/05 00:35:48;;;;;;;4.35;3.95;;;;;;;20.57;81.00;101028.03;4976612;28;20034;-65
2022/09/05 00:38:22;;;;;;;6.68;4.20;;;;;;;20.51;81.64;101029.59;4979993;28;20027;-67
2022/09/05 00:41:05;;;;;;;6.38;4.43;;;;;;;20.52;81.82;101035.88;4974037;28;20037;-65
2022/09/05 00:43:41;;;;;;;5.15;3.97;;;;;;;20.54;81.73;101028.38;4984818;28;20084;-67
2022/09/05 00:46:12;;;;;;;5.00;4.50;;;;;;;20.56;81.51;101026.31;4980373;28;20039;-66
2022/09/05 00:49:01;;;;;;;4.88;4.40;;;;;;;20.54;81.12;101020.22;4980963;28;20110;-65
2022/09/05 00:51:45;;;;;;;6.18;4.15;;;;;;;20.49;81.23;101022.63;4999532;28;20460;-66
2022/09/05 00:54:16;;;;;;;5.55;4.25;;;;;;;20.49;81.75;101031.66;5005762;28;20029;-66
2022/09/05 00:57:19;;;;;;;4.70;4.28;;;;;;;20.46;82.16;101029.28;5006166;28;20030;-65
2022/09/05 01:00:09;;;;;;;4.80;3.88;;;;;;;20.43;82.20;101024.19;5002076;28;20033;-65
2022/09/05 01:03:08;;;;;;;4.93;4.15;;;;;;;20.43;82.36;101023.34;5005731;28;20025;-66
2022/09/05 01:05:46;;;;;;;4.57;4.18;;;;;;;20.41;82.46;101022.69;5006622;28;20034;-67
2022/09/05 01:08:50;;;;;;;7.20;4.95;;;;;;;20.40;82.61;101020.97;5005029;28;20482;-64
2022/09/05 01:11:27;;;;;;;5.88;4.68;;;;;;;20.36;82.45;101017.78;5000643;28;20081;-66
2022/09/05 01:14:33;;;;;;;5.85;4.40;;;;;;;20.29;82.78;101005.91;5007012;28;20096;-67
2022/09/05 01:17:33;;;;;;;5.72;4.32;;;;;;;20.37;82.88;101021.34;5006716;28;20053;-66
2022/09/05 01:20:10;;;;;;;4.60;4.20;;;;;;;20.35;83.48;101012.50;5006926;28;20033;-66
2022/09/05 01:23:06;;;;;;;6.25;4.20;;;;;;;20.35;83.45;101010.63;5004537;28;20517;-65
2022/09/05 01:26:02;;;;;;;4.70;4.25;;;;;;;20.35;83.32;101017.94;5005079;28;20030;-66
2022/09/05 01:28:43;;;;;;;5.43;3.92;;;;;;;20.29;83.77;101019.53;5006523;28;20075;-68
2022/09/05 01:31:46;;;;;;;5.40;4.35;;;;;;;20.32;84.00;101026.47;5006623;28;20444;-66
2022/09/05 01:34:26;;;;;;;6.20;4.20;;;;;;;20.31;83.98;101022.91;5002298;28;20041;-67
2022/09/05 01:37:01;;;;;;;5.45;4.50;;;;;;;20.32;83.78;101024.63;5005587;28;20548;-66
2022/09/05 01:39:27;;;;;;;4.38;3.97;;;;;;;20.33;83.85;101028.19;5006282;28;20112;-65
2022/09/05 01:42:03;;;;;;;8.23;4.75;;;;;;;20.33;83.36;101028.19;5006533;28;20449;-65
2022/09/05 01:44:43;;;;;;;4.47;4.07;;;;;;;20.28;83.86;101019.72;5002863;28;20041;-65
2022/09/05 01:47:43;;;;;;;4.95;4.43;;;;;;;20.31;83.60;101031.06;5003335;28;20025;-65
2022/09/05 01:50:14;;;;;;;4.90;4.40;;;;;;;20.28;83.63;101027.88;4991348;28;20407;-66
2022/09/05 01:53:26;;;;;;;6.25;4.30;;;;;;;20.26;83.91;101032.66;5023381;28;20724;-65
2022/09/05 01:56:31;;;;;;;5.47;4.25;;;;;;;20.19;84.61;101024.38;4962888;28;20033;-66
2022/09/05 01:59:22;;;;;;;4.40;4.00;;;;;;;20.23;84.41;101038.44;4963856;28;20031;-66
2022/09/05 02:02:26;;;;;;;4.80;4.38;;;;;;;20.21;84.46;101035.09;5019831;28;20033;-67
2022/09/05 02:05:13;;;;;;;5.32;4.35;;;;;;;20.16;84.30;101022.00;4967412;28;20043;-67
2022/09/05 02:08:10;;;;;;;4.50;4.10;;;;;;;20.17;84.61;101023.69;4954254;28;20027;-68
2022/09/05 02:11:07;;;;;;;6.10;4.45;;;;;;;20.14;84.67;101022.16;4948784;28;20053;-66
2022/09/05 02:13:32;;;;;;;6.63;4.40;;;;;;;20.14;84.89;101029.47;5016279;28;20046;-66
2022/09/05 02:16:22;;;;;;;5.90;4.43;;;;;;;20.14;84.65;101030.34;5027209;28;20055;-66
2022/09/05 02:19:08;;;;;;;6.70;4.50;;;;;;;20.14;84.37;101027.63;5024992;28;20033;-65
2022/09/05 02:21:36;;;;;;;8.45;4.78;;;;;;;20.12;84.37;101024.22;5024746;28;20026;-66
2022/09/05 02:24:33;;;;;;;10.10;4.30;;;;;;;20.12;84.04;101037.84;5024943;28;20033;-66
2022/09/05 02:26:59;;;;;;;4.90;4.00;;;;;;;20.10;84.47;101033.56;5024884;28;20395;-65
2022/09/05 02:29:35;;;;;;;4.90;4.40;;;;;;;20.09;84.38;101035.44;5006991;28;20387;-67
2022/09/05 02:32:22;;;;;;;6.07;4.63;;;;;;;20.07;84.11;101034.78;5007503;28;20025;-66
2022/09/05 02:35:06;;;;;;;5.32;4.82;;;;;;;20.06;83.98;101032.22;5024797;28;20040;-66
2022/09/05 02:37:53;;;;;;;7.17;5.13;;;;;;;20.05;84.57;101034.09;5024655;28;20520;-66
2022/09/05 02:40:35;;;;;;;6.15;4.60;;;;;;;20.03;84.88;101030.69;5024624;28;20068;-66
2022/09/05 02:43:18;;;;;;;12.00;5.53;;;;;;;20.02;85.72;101031.72;5003833;28;20643;-66
2022/09/05 02:46:05;;;;;;;10.10;5.13;;;;;;;20.01;85.87;101045.53;5006724;28;20067;-64
2022/09/05 02:48:45;;;;;;;7.45;4.85;;;;;;;20.01;85.94;101040.94;5025755;28;20421;-65
2022/09/05 02:51:24;;;;;;;4.93;4.43;;;;;;;20.00;85.85;101039.22;5003631;28;20054;-66
2022/09/05 02:53:56;;;;;;;7.03;5.00;;;;;;;20.01;86.40;101037.34;5000028;28;20094;-66
2022/09/05 02:56:50;;;;;;;6.00;4.80;;;;;;;20.00;86.99;101036.50;5003297;28;20060;-65
2022/09/05 02:59:45;;;;;;;4.97;4.45;;;;;;;20.01;87.10;101048.25;5004671;28;20065;-66
2022/09/05 03:02:19;;;;;;;7.55;4.45;;;;;;;19.93;87.26;101032.78;5003554;28;20026;-66
2022/09/05 03:05:07;;;;;;;5.30;4.80;;;;;;;19.90;87.14;101040.47;5003298;28;20080;-66
2022/09/05 03:07:54;;;;;;;4.72;4.30;;;;;;;19.88;87.18;101043.38;4966529;28;20046;-66
2022/09/05 03:10:59;;;;;;;5.18;4.68;;;;;;;19.83;87.53;101045.78;5005048;28;20083;-65
2022/09/05 03:13:51;;;;;;;5.13;4.55;;;;;;;19.81;87.69;101036.94;5003612;28;20560;-66
2022/09/05 03:16:35;;;;;;;5.22;4.57;;;;;;;19.78;88.30;101048.19;4989789;28;20054;-66
2022/09/05 03:19:43;;;;;;;6.15;4.35;;;;;;;19.72;88.23;101042.59;4999866;28;20030;-66
2022/09/05 03:22:43;;;;;;;6.45;4.57;;;;;;;19.71;88.41;101047.19;5002987;28;20036;-65
2022/09/05 03:25:26;;;;;;;6.55;5.07;;;;;;;19.65;88.45;101047.91;5005118;28;20516;-66
2022/09/05 03:28:02;;;;;;;7.70;4.55;;;;;;;19.64;89.04;101061.69;5004526;28;20455;-66
2022/09/05 03:31:02;;;;;;;6.47;5.00;;;;;;;19.57;89.03;101050.63;5004316;28;20129;-65
2022/09/05 03:33:55;;;;;;;4.75;4.25;;;;;;;19.53;89.44;101054.72;5004635;28;20056;-66
2022/09/05 03:36:36;;;;;;;6.38;4.53;;;;;;;19.49;89.96;101058.81;5004663;28;20038;-67
2022/09/05 03:39:20;;;;;;;7.18;5.03;;;;;;;19.48;89.98;101054.38;5003872;28;20065;-65
2022/09/05 03:42:33;;;;;;;9.20;4.70;;;;;;;19.48;90.20;101056.28;5002332;28;20041;-66
2022/09/05 03:45:17;;;;;;;8.10;4.95;;;;;;;19.48;90.23;101057.09;4985073;28;20045;-66
2022/09/05 03:48:01;;;;;;;6.50;5.07;;;;;;;19.48;90.34;101061.72;5004627;28;20843;-64
2022/09/05 03:50:55;;;;;;;7.75;5.13;;;;;;;19.45;89.84;101064.78;5006527;28;20046;-66
2022/09/05 03:53:20;;;;;;;7.68;5.68;;;;;;;19.41;89.95;101063.44;5027811;28;20038;-65
2022/09/05 03:56:13;;;;;;;6.10;4.85;;;;;;;19.33;90.19;101068.88;5028253;28;20039;-65
2022/09/05 03:59:29;;;;;;;8.00;5.50;;;;;;;19.29;90.64;101076.56;5026610;28;20029;-66
2022/09/05 04:02:03;;;;;;;7.82;5.90;;;;;;;19.26;90.76;101073.31;4947240;29;20053;-66
2022/09/05 04:04:47;;;;;;;6.68;5.90;;;;;;;19.18;90.86;101076.00;5005910;28;20041;-66
2022/09/05 04:07:51;;;;;;;6.20;5.50;;;;;;;19.14;91.11;101077.38;5026198;28;20037;-67
2022/09/05 04:10:30;;;;;;;7.80;5.57;;;;;;;18.99;91.39;101071.78;4982997;28;20394;-65
2022/09/05 04:13:13;;;;;;;6.63;5.88;;;;;;;19.05;91.66;101095.56;5027428;28;20630;-66
2022/09/05 04:16:03;;;;;;;6.95;5.75;;;;;;;19.03;92.08;101094.91;5025334;28;20061;-65
2022/09/05 04:18:38;;;;;;;10.23;6.00;;;;;;;19.05;92.25;101101.00;5026364;28;20028;-65
2022/09/05 04:21:16;;;;;;;8.75;6.20;;;;;;;19.01;91.67;101102.38;5026421;28;20021;-66
2022/09/05 04:24:09;;;;;;;7.18;6.50;;;;;;;19.04;90.79;101110.19;5028082;28;20025;-65
2022/09/05 04:26:56;;;;;;;6.97;6.18;;;;;;;19.00;91.77;101122.44;5027998;28;20384;-66
2022/09/05 04:29:46;;;;;;;9.18;5.78;;;;;;;18.95;92.32;101116.63;5028105;28;20029;-65
2022/09/05 04:32:17;;;;;;;8.18;6.38;;;;;;;18.95;93.17;101123.94;5028258;28;20030;-65
2022/09/05 04:34:55;;;;;;;11.13;6.88;;;;;;;18.95;93.05;101130.22;5028158;28;20570;-65
2022/09/05 04:37:53;;;;;;;9.15;6.25;;;;;;;18.98;92.86;101124.47;5028343;28;20049;-66
2022/09/05 04:40:59;;;;;;;8.35;6.32;;;;;;;18.99;92.69;101131.59;5025196;28;20659;-67
2022/09/05 04:43:42;;;;;;;8.80;6.13;;;;;;;19.05;92.82;101135.50;5010292;28;20060;-66
2022/09/05 04:46:27;;;;;;;13.33;6.77;;;;;;;19.07;92.02;101137.06;5029603;28;20891;-66
2022/09/05 04:48:56;;;;;;;11.63;6.63;;;;;;;19.12;91.84;101141.97;5010891;28;20751;-66
2022/09/05 04:51:30;;;;;;;10.02;6.47;;;;;;;19.14;91.69;101131.75;5009018;28;20132;-66
2022/09/05 04:54:20;;;;;;;9.18;6.40;;;;;;;19.15;91.60;101139.75;5028743;28;20033;-66
2022/09/05 04:56:51;;;;;;;11.02;7.28;;;;;;;19.19;91.29;101149.28;5028879;28;20048;-67
2022/09/05 04:59:33;;;;;;;11.95;7.18;;;;;;;19.15;91.37;101145.19;5028527;28;20751;-66
2022/09/05 05:02:31;;;;;;;9.60;6.38;;;;;;;19.18;91.57;101147.56;5028859;28;20049;-65
2022/09/05 05:05:00;;;;;;;9.15;6.70;;;;;;;19.22;91.21;101153.53;5024923;28;20029;-66
2022/09/05 05:07:46;;;;;;;11.10;7.13;;;;;;;19.18;91.41;101153.03;5028518;28;20060;-66
2022/09/05 05:10:20;;;;;;;7.60;6.65;;;;;;;19.23;91.14;101145.22;5014520;28;20121;-66
2022/09/05 05:12:56;;;;;;;;;;;;;;;19.26;90.78;101163.94;5028891;28;20151;-66
2022/09/05 05:15:25;;;;;;;12.65;7.13;;;;;;;19.28;91.12;101159.16;5027800;28;19967;-66
2022/09/05 05:18:19;;;;;;;12.07;7.00;;;;;;;19.27;90.86;101154.75;5028230;28;20041;-65
2022/09/05 05:21:06;;;;;;;11.23;6.93;;;;;;;19.36;90.70;101167.34;5010367;28;20083;-65
2022/09/05 05:23:31;;;;;;;14.25;6.45;;;;;;;19.38;90.63;101159.03;5028193;28;20107;-66
2022/09/05 05:26:01;;;;;;;12.77;6.60;;;;;;;19.41;90.73;101170.38;5028645;28;20108;-65
2022/09/05 05:28:43;;;;;;;13.90;7.05;;;;;;;19.47;90.70;101157.97;5026017;28;20421;-65
2022/09/05 05:31:31;;;;;;;19.00;6.75;;;;;;;19.51;90.81;101164.78;5026989;28;20033;-66
2022/09/05 05:34:13;;;;;;;9.95;6.65;;;;;;;19.52;90.77;101156.44;5028118;28;20060;-66
2022/09/05 05:36:49;;;;;;;14.32;6.72;;;;;;;19.58;90.44;101163.91;5028096;28;20029;-65
2022/09/05 05:39:27;;;;;;;10.07;6.13;;;;;;;19.64;89.93;101165.13;5026765;28;20044;-66
2022/09/05 05:41:55;;;;;;;13.00;6.30;;;;;;;19.67;89.96;101171.03;5028013;28;20040;-66
2022/09/05 05:44:27;;;;;;;9.35;6.53;;;;;;;19.69;89.58;101169.00;5027789;28;20035;-66
2022/09/05 05:47:25;;;;;;;11.63;7.18;;;;;;;19.71;90.38;101160.69;5027772;28;20051;-65
2022/09/05 05:49:59;;;;;;;9.63;6.55;;;;;;;19.76;90.31;101166.44;4989506;28;20055;-66
2022/09/05 05:52:37;;;;;;;9.52;6.88;;;;;;;19.82;90.49;101165.75;5027395;28;20120;-66
2022/09/05 05:55:40;;;;;;;14.43;6.50;;;;;;;19.85;89.54;101168.97;5027542;28;20048;-64
2022/09/05 05:58:28;;;;;;;7.88;6.00;;;;;;;19.91;87.56;101162.84;5026378;28;20086;-66
2022/09/05 06:00:53;;;;;;;16.58;5.65;;;;;;;19.99;86.95;101172.84;5025810;28;20029;-66
2022/09/05 06:03:56;;;;;;;8.15;5.38;;;;;;;20.05;86.40;101170.28;5025215;28;20026;-65
2022/09/05 06:06:27;;;;;;;10.73;5.45;;;;;;;19.99;85.83;101149.19;5023286;28;20052;-66
2022/09/05 06:09:11;;;;;;;8.50;5.40;;;;;;;20.15;85.25;101165.50;5026056;28;20056;-66
2022/09/05 06:11:56;;;;;;;11.65;5.70;;;;;;;20.33;84.81;101170.72;5027029;28;20045;-66
2022/09/05 06:14:40;;;;;;;8.40;5.30;;;;;;;20.49;84.45;101167.94;5022403;28;20403;-66
2022/09/05 06:17:39;;;;;;;9.70;5.30;;;;;;;20.69;82.93;101171.91;5027029;28;20036;-67
2022/09/05 06:20:22;;;;;;;8.07;4.68;;;;;;;20.92;81.26;101174.69;5024953;28;20031;-66
2022/09/05 06:23:15;;;;;;;5.20;4.03;;;;;;;21.17;78.83;101168.03;5024208;28;20041;-65
2022/09/05 06:25:59;;;;;;;8.07;4.05;;;;;;;21.41;77.17;101173.31;5005748;28;20029;-66
2022/09/05 06:28:29;;;;;;;6.57;4.22;;;;;;;21.62;74.01;101168.00;5026080;28;20084;-66
2022/09/05 06:31:03;;;;;;;8.98;4.22;;;;;;;21.84;71.94;101161.66;5008141;28;20433;-65
2022/09/05 06:34:16;;;;;;;6.63;4.35;;;;;;;22.05;70.50;101165.34;5006110;28;20045;-65
2022/09/05 06:37:05;;;;;;;5.82;3.78;;;;;;;22.31;68.99;101153.91;5025673;28;20060;-66
2022/09/05 06:39:55;;;;;;;4.47;3.58;;;;;;;22.59;66.60;101157.69;5008432;28;20029;-66
2022/09/05 06:42:57;;;;;;;6.57;4.07;;;;;;;22.88;65.46;101165.81;5026230;28;20654;-66
2022/09/05 06:45:25;;;;;;;6.63;3.70;;;;;;;23.16;62.92;101165.91;5022396;28;20119;-66
2022/09/05 06:47:59;;;;;;;7.57;3.75;;;;;;;23.31;62.69;101161.25;5022134;28;20048;-66
2022/09/05 06:50:48;;;;;;;7.38;4.00;;;;;;;23.52;61.77;101163.94;5021129;28;20033;-67
2022/09/05 06:53:41;;;;;;;7.30;3.80;;;;;;;23.84;59.51;101160.63;5017617;28;20049;-66
2022/09/05 06:56:16;;;;;;;5.75;3.97;;;;;;;24.00;59.80;101157.59;5021051;28;20033;-66
2022/09/05 06:58:59;;;;;;;4.93;3.30;;;;;;;24.23;58.16;101167.25;5026233;28;20033;-66
2022/09/05 07:01:30;;;;;;;5.75;3.70;;;;;;;24.37;57.41;101159.91;5026289;28;20037;-66
2022/09/05 07:04:39;;;;;;;7.53;3.38;;;;;;;24.54;57.08;101166.78;5024952;28;20934;-65
2022/09/05 07:07:23;;;;;;;4.03;3.63;;;;;;;24.74;56.80;101167.72;5024234;28;20037;-66
2022/09/05 07:09:59;;;;;;;4.40;3.33;;;;;;;24.88;56.43;101171.34;5021022;28;20485;-65
2022/09/05 07:12:52;;;;;;;3.83;3.30;;;;;;;25.17;54.57;101171.84;5025534;28;20030;-65
2022/09/05 07:15:33;;;;;;;3.90;3.13;;;;;;;25.31;54.76;101161.75;5022557;28;20029;-65
2022/09/05 07:18:28;;;;;;;3.67;3.05;;;;;;;25.41;54.51;101171.25;5004879;28;20029;-66
2022/09/05 07:21:16;;;;;;;;;;;;;;;25.55;53.92;101172.97;5021326;28;20103;-65
2022/09/05 07:23:48;;;;;;;6.90;3.30;;;;;;;25.83;53.37;101162.59;5016460;28;20546;-65
2022/09/05 07:26:17;;;;;;;5.53;3.22;;;;;;;25.91;53.70;101169.78;5028967;28;20511;-66
2022/09/05 07:28:45;;;;;;;4.10;3.05;;;;;;;25.98;52.56;101157.75;5030274;28;20434;-66
2022/09/05 07:31:16;;;;;;;4.47;3.00;;;;;;;26.17;50.89;101158.75;5030355;28;20048;-65
2022/09/05 07:33:45;;;;;;;3.95;3.55;;;;;;;26.32;50.95;101167.63;5012716;28;20017;-67
2022/09/05 07:36:18;;;;;;;4.97;3.10;;;;;;;26.41;49.42;101150.63;5027476;28;20609;-66
2022/09/05 07:38:49;;;;;;;5.60;3.57;;;;;;;26.49;50.29;101155.06;5026841;28;20041;-66
2022/09/05 07:41:29;;;;;;;5.32;2.95;;;;;;;26.63;50.75;101167.72;5028035;28;20033;-66
2022/09/05 07:44:01;;;;;;;6.13;3.40;;;;;;;26.84;50.29;101161.91;5029900;28;20022;-66
2022/09/05 07:46:34;;;;;;;14.68;3.40;;;;;;;26.95;49.39;101160.38;5030180;28;20033;-66
2022/09/05 07:49:05;;;;;;;4.28;3.10;;;;;;;27.16;49.12;101160.88;5030019;28;20469;-65
2022/09/05 07:51:34;;;;;;;4.70;3.33;;;;;;;27.33;48.84;101166.72;5010904;28;20547;-66
2022/09/05 07:54:19;;;;;;;7.15;3.10;;;;;;;27.59;47.64;101166.50;5028172;28;20041;-65
2022/09/05 07:56:49;;;;;;;5.18;3.03;;;;;;;27.79;45.85;101168.03;5029630;28;20087;-64
2022/09/05 07:59:16;;;;;;;5.43;2.80;;;;;;;27.96;46.13;101163.66;5029534;28;20025;-66
2022/09/05 08:01:44;;;;;;;7.43;2.85;;;;;;;28.23;45.73;101161.47;5029280;28;20030;-66
2022/09/05 08:04:34;;;;;;;4.97;2.97;;;;;;;28.65;44.55;101168.00;5029860;28;20041;-66
2022/09/05 08:07:30;;;;;;;5.00;2.70;;;;;;;29.22;42.74;101165.53;5018712;28;20489;-66
2022/09/05 08:10:18;;;;;;;2.85;2.55;;;;;;;29.93;41.36;101162.66;5002641;28;20124;-67
2022/09/05 08:12:48;;;;;;;4.80;2.72;;;;;;;31.02;39.67;101152.38;5025756;28;20025;-66
2022/09/05 08:15:23;;;;;;;3.55;2.55;;;;;;;31.95;37.27;101152.66;5024543;28;20101;-65
2022/09/05 08:18:10;;;;;;;5.45;2.60;;;;;;;33.29;35.21;101151.88;5026823;28;20045;-66
2022/09/05 08:20:45;;;;;;;3.78;3.10;;;;;;;34.50;33.69;101152.59;5008255;28;20032;-66
2022/09/05 08:23:38;;;;;;;7.55;2.50;;;;;;;35.54;31.40;101144.81;5009040;28;20018;-67
2022/09/05 08:26:11;;;;;;;5.80;2.17;;;;;;;36.16;30.82;101150.91;5026112;28;20805;-66
2022/09/05 08:28:40;;;;;;;5.28;2.47;;;;;;;36.87;29.26;101145.13;5026353;28;20029;-67
2022/09/05 08:31:18;;;;;;;4.45;2.40;;;;;;;37.67;27.82;101150.19;5027667;28;20033;-67
2022/09/05 08:33:47;;;;;;;2.40;2.10;;;;;;;38.11;27.54;101142.50;5024454;28;20057;-66
2022/09/05 08:36:41;;;;;;;4.70;2.40;;;;;;;39.23;26.12;101138.81;5027294;28;20144;-67
2022/09/05 08:39:10;;;;;;;5.82;2.30;;;;;;;39.50;25.94;101138.97;5010397;28;20033;-66
2022/09/05 08:41:47;;;;;;;8.77;2.35;;;;;;;39.44;25.82;101148.63;5026544;28;20036;-67
2022/09/05 08:44:15;;;;;;;2.85;1.70;;;;;;;39.27;25.83;101139.91;5008921;28;20041;-67
2022/09/05 08:46:45;;;;;;;3.72;2.20;;;;;;;39.50;25.09;101138.97;5027299;28;20033;-67
2022/09/05 08:49:32;;;;;;;3.15;1.98;;;;;;;39.62;24.69;101136.50;5027643;28;20037;-67
2022/09/05 08:52:27;;;;;;;3.85;1.75;;;;;;;39.76;25.08;101128.97;5023801;28;20064;-67
2022/09/05 08:55:53;;;;;;;2.55;2.00;;;;;;;39.85;23.87;101134.75;5010736;28;20052;-66
2022/09/05 08:58:35;;;;;;;5.72;2.33;;;;;;;39.87;23.35;101130.47;4929354;29;20127;-67
2022/09/05 09:01:21;;;;;;;4.22;1.83;;;;;;;40.33;23.10;101136.91;4945475;29;20409;-67
2022/09/05 09:04:25;;;;;;;2.40;1.77;;;;;;;40.16;22.98;101133.00;5012594;28;20137;-67
2022/09/05 09:06:59;;;;;;;1.73;1.63;;;;;;;40.47;22.24;101126.50;5027143;28;20029;-67
2022/09/05 09:10:07;;;;;;;2.05;1.85;;;;;;;40.29;22.60;101116.19;5023342;28;20052;-67
2022/09/05 09:12:42;;;;;;;2.00;1.80;;;;;;;40.56;21.60;101115.34;4939548;28;20190;-66
2022/09/05 09:15:25;;;;;;;3.83;1.75;;;;;;;40.70;22.00;101115.34;5009162;28;20670;-66
2022/09/05 09:17:51;;;;;;;3.20;1.88;;;;;;;40.90;22.01;101109.25;5024916;28;20025;-66
2022/09/05 09:20:42;;;;;;;3.75;2.08;;;;;;;41.19;21.88;101112.53;5026444;28;20030;-66
2022/09/05 09:23:21;;;;;;;2.55;2.00;;;;;;;41.56;21.67;101112.19;5025865;28;20055;-66
2022/09/05 09:26:07;;;;;;;3.80;1.95;;;;;;;41.36;22.04;101112.66;5024724;28;20477;-66
2022/09/05 09:28:42;;;;;;;2.58;1.90;;;;;;;41.10;22.05;101114.44;5013133;28;20041;-66
2022/09/05 09:31:11;;;;;;;2.45;2.05;;;;;;;41.13;21.63;101111.00;5024297;28;20034;-67
2022/09/05 09:33:44;;;;;;;3.15;2.40;;;;;;;39.29;23.64;101112.31;5008069;28;20125;-67
2022/09/05 09:36:49;;;;;;;2.08;1.60;;;;;;;38.38;25.04;101111.91;5026505;28;20044;-66
2022/09/05 09:39:36;;;;;;;3.00;2.00;;;;;;;37.38;25.82;101112.88;5023774;28;20041;-67
2022/09/05 09:42:30;;;;;;;4.28;2.05;;;;;;;36.26;26.90;101105.31;5025366;28;20051;-67
2022/09/05 09:45:08;;;;;;;2.22;1.95;;;;;;;35.42;28.30;101113.53;5006310;28;20041;-66
2022/09/05 09:48:04;;;;;;;2.72;2.20;;;;;;;34.50;29.24;101108.00;5025031;28;20033;-66
2022/09/05 09:50:32;;;;;;;3.40;2.20;;;;;;;33.94;30.16;101113.50;5026266;28;20061;-66
2022/09/05 09:53:22;;;;;;;4.45;2.10;;;;;;;33.47;30.96;101118.16;5025855;28;20120;-67
2022/09/05 09:56:25;;;;;;;3.97;2.05;;;;;;;33.13;31.26;101119.47;5005562;28;20124;-65
2022/09/05 09:59:21;;;;;;;2.97;2.47;;;;;;;32.75;31.61;101120.41;5006778;28;20044;-67
2022/09/05 10:02:14;;;;;;;3.75;2.58;;;;;;;32.46;32.61;101108.69;5026083;28;20060;-66
2022/09/05 10:05:07;;;;;;;3.78;2.38;;;;;;;32.17;32.02;101089.66;5025345;28;20033;-65
2022/09/05 10:08:10;;;;;;;2.92;2.08;;;;;;;32.01;32.77;101105.28;5025731;28;20381;-66
2022/09/05 10:11:11;;;;;;;4.13;2.00;;;;;;;31.86;33.68;101104.22;5022683;28;20445;-66
2022/09/05 10:13:55;;;;;;;2.85;2.15;;;;;;;31.67;33.77;101103.63;4991082;28;20037;-67
2022/09/05 10:16:42;;;;;;;7.28;2.40;;;;;;;31.53;33.16;101098.69;5026175;28;20735;-67
2022/09/05 10:19:29;;;;;;;2.92;2.38;;;;;;;31.27;33.27;101105.72;5024513;28;20033;-67
2022/09/05 10:21:55;;;;;;;2.83;1.92;;;;;;;31.10;33.10;101098.44;5007080;28;20501;-66
2022/09/05 10:24:31;;;;;;;2.67;2.10;;;;;;;30.80;33.93;101081.25;5006897;28;20053;-67
2022/09/05 10:27:33;;;;;;;4.72;1.98;;;;;;;30.64;34.65;101099.50;5025302;28;20195;-67
2022/09/05 10:30:07;;;;;;;2.83;2.60;;;;;;;30.46;35.35;101096.88;5024152;28;20389;-66
2022/09/05 10:32:42;;;;;;;4.00;2.58;;;;;;;30.30;35.83;101098.50;5005156;28;20041;-67
2022/09/05 10:35:33;;;;;;;3.58;2.35;;;;;;;30.13;36.49;101080.09;5005996;28;20029;-67
2022/09/05 10:38:13;;;;;;;3.88;2.50;;;;;;;30.18;35.92;101091.31;5024946;28;20033;-66
2022/09/05 10:40:43;;;;;;;3.42;2.30;;;;;;;30.08;35.77;101088.31;5023437;28;20035;-67
2022/09/05 10:43:27;;;;;;;3.05;2.38;;;;;;;30.02;36.28;101087.34;5002921;28;20029;-67
2022/09/05 10:45:55;;;;;;;4.53;2.47;;;;;;;29.80;36.81;101086.28;5024691;28;20083;-67
2022/09/05 10:48:26;;;;;;;5.10;2.42;;;;;;;29.82;36.84;101080.53;5025117;28;20222;-67
2022/09/05 10:51:02;;;;;;;7.93;2.80;;;;;;;29.78;36.43;101084.84;4992711;28;20057;-66
2022/09/05 10:53:52;;;;;;;4.40;2.28;;;;;;;29.63;36.43;101073.44;5002909;28;20034;-66
2022/09/05 10:56:24;;;;;;;3.55;2.45;;;;;;;29.63;36.72;101081.72;5022872;28;20424;-67
2022/09/05 10:59:49;;;;;;;2.63;2.42;;;;;;;29.54;36.75;101059.09;5025068;28;20033;-67
2022/09/05 11:02:21;;;;;;;2.97;2.30;;;;;;;29.56;37.16;101073.50;4990915;28;20048;-67
2022/09/05 11:04:55;;;;;;;3.17;2.00;;;;;;;29.59;36.95;101061.97;5024478;28;20103;-66
2022/09/05 11:07:49;;;;;;;2.75;2.33;;;;;;;29.53;36.98;101062.09;5024540;28;20063;-66
2022/09/05 11:10:49;;;;;;;5.28;3.00;;;;;;;29.41;38.00;101053.81;5025076;28;20029;-66
2022/09/05 11:13:55;;;;;;;7.20;2.60;;;;;;;29.38;38.08;101065.34;5022569;28;20095;-66
2022/09/05 11:16:34;;;;;;;4.32;2.58;;;;;;;29.35;37.35;101059.44;5024969;28;20032;-67
2022/09/05 11:19:21;;;;;;;4.97;2.50;;;;;;;29.35;37.54;101057.53;5024128;28;20045;-66
2022/09/05 11:21:55;;;;;;;2.95;2.35;;;;;;;29.23;37.98;101058.56;5022663;28;20106;-67
2022/09/05 11:24:33;;;;;;;4.50;2.50;;;;;;;29.14;37.90;101058.06;5001476;28;20033;-67
2022/09/05 11:27:20;;;;;;;3.55;1.90;;;;;;;29.16;37.58;101055.06;5006586;28;20044;-66
2022/09/05 11:29:49;;;;;;;3.00;2.28;;;;;;;29.04;37.87;101032.94;5025075;28;20053;-67
2022/09/05 11:32:21;;;;;;;6.18;2.80;;;;;;;29.26;37.50;101055.31;5004963;28;20445;-67
2022/09/05 11:35:17;;;;;;;3.47;2.47;;;;;;;29.33;36.78;101050.53;5006281;28;20038;-67
2022/09/05 11:37:58;;;;;;;2.97;2.30;;;;;;;29.34;36.42;101053.03;5022653;28;20075;-67
2022/09/05 11:41:01;;;;;;;6.05;2.00;;;;;;;29.26;36.49;101047.88;5024357;28;20118;-66
2022/09/05 11:44:09;;;;;;;2.90;2.00;;;;;;;29.22;36.54;101045.84;5005302;28;20033;-66
2022/09/05 11:47:06;;;;;;;3.50;2.53;;;;;;;29.01;37.04;101019.56;5006682;28;20029;-67
2022/09/05 11:49:43;;;;;;;3.70;2.00;;;;;;;29.03;37.62;101023.00;4995167;28;20049;-67
2022/09/05 11:52:56;;;;;;;3.00;2.15;;;;;;;29.07;37.89;101034.38;5023530;28;20124;-67
2022/09/05 11:55:49;;;;;;;5.10;2.55;;;;;;;29.09;37.77;101032.25;5020901;28;20038;-66
2022/09/05 11:58:20;;;;;;;4.70;2.38;;;;;;;29.06;38.53;101022.53;5024196;28;20031;-67
2022/09/05 12:00:57;;;;;;;6.53;2.40;;;;;;;29.16;38.78;101019.16;5024186;28;20038;-67
2022/09/05 12:04:01;;;;;;;4.60;2.40;;;;;;;29.11;38.23;101028.16;5023908;28;20026;-67
2022/09/05 12:07:04;;;;;;;4.60;2.17;;;;;;;28.97;37.98;101006.47;5023918;28;20026;-67
2022/09/05 12:09:30;;;;;;;2.30;2.10;;;;;;;28.96;38.35;101021.38;4995554;28;20454;-67
2022/09/05 12:12:21;;;;;;;3.15;2.42;;;;;;;28.90;38.18;101006.59;5026752;28;20065;-67
2022/09/05 12:15:08;;;;;;;5.18;2.55;;;;;;;29.03;37.93;101022.09;5008979;28;20029;-67
2022/09/05 12:18:03;;;;;;;3.55;2.20;;;;;;;28.94;37.58;101013.31;5027251;28;20029;-67
2022/09/05 12:20:34;;;;;;;2.50;2.30;;;;;;;28.81;37.81;101001.63;5028300;28;20069;-68
2022/09/05 12:23:24;;;;;;;4.07;2.25;;;;;;;28.92;37.17;101009.13;5027506;28;20034;-67
2022/09/05 12:26:09;;;;;;;2.85;2.33;;;;;;;28.81;37.83;100996.97;5027618;28;20049;-67
2022/09/05 12:28:35;;;;;;;2.85;2.50;;;;;;;29.02;37.52;101012.13;5025614;28;20021;-68
2022/09/05 12:31:39;;;;;;;2.75;1.90;;;;;;;28.91;36.97;101001.91;5027466;28;20051;-67
2022/09/05 12:34:11;;;;;;;3.75;2.40;;;;;;;28.82;37.49;100989.53;4998148;28;20152;-67
2022/09/05 12:36:42;;;;;;;5.65;2.50;;;;;;;28.81;37.84;100998.88;5025374;28;20056;-68
2022/09/05 12:39:25;;;;;;;5.03;2.33;;;;;;;28.83;37.60;101002.25;5027954;28;20033;-67
2022/09/05 12:42:02;;;;;;;2.58;2.22;;;;;;;28.80;37.58;100994.44;5026390;28;20037;-67
2022/09/05 12:44:42;;;;;;;3.00;2.20;;;;;;;28.78;37.15;100996.59;5027593;28;20059;-66